Time;durP1;ratioP1;P1;durP2;ratioP2;P2;SDS_P1;SDS_P2;PMS_P1;PMS_P2;Temp;Humidity;BMP_temperature;BMP_pressure;BME280_temperature;BME280_humidity;BME280_pressure;Samples;Min_cycle;Max_cycle;Signal;HPM_P1;HPM_P2
2021/11/12 00:13:41;;;;;;;38.45;18.10;;;11.10;97.60;;;;;;5071674;28;20051;-67
2021/11/12 00:16:07;;;;;;;41.55;19.80;;;11.10;97.50;;;;;;5071580;28;20048;-68
2021/11/12 00:18:34;;;;;;;41.35;19.80;;;11.10;97.30;;;;;;5071086;28;20063;-67
2021/11/12 00:21:01;;;;;;;44.33;19.80;;;11.00;97.20;;;;;;5071290;28;20119;-67
2021/11/12 00:23:34;;;;;;;38.45;20.90;;;11.00;97.30;;;;;;5071336;28;20107;-68
2021/11/12 00:26:01;;;;;;;41.60;19.20;;;11.00;97.40;;;;;;5071263;28;20053;-67
2021/11/12 00:28:31;;;;;;;39.77;18.73;;;11.10;97.40;;;;;;5071195;28;20354;-68
2021/11/12 00:31:17;;;;;;;38.25;19.67;;;11.00;97.40;;;;;;5071501;28;20027;-68
2021/11/12 00:39:08;;;;;;;41.63;20.17;;;11.00;97.70;;;;;;5071206;28;20036;-68
2021/11/12 00:41:40;;;;;;;46.08;21.73;;;11.00;97.50;;;;;;5071119;28;20033;-68
2021/11/12 00:45:01;;;;;;;46.85;20.00;;;11.00;97.50;;;;;;5070897;28;20029;-69
2021/11/12 00:49:27;;;;;;;44.75;18.27;;;11.10;97.50;;;;;;5070954;28;20041;-69
2021/11/12 00:51:55;;;;;;;34.20;19.77;;;11.10;97.50;;;;;;5071174;28;20012;-68
2021/11/12 00:54:21;;;;;;;45.55;20.85;;;11.10;97.40;;;;;;5070835;28;20046;-68
2021/11/12 00:56:49;;;;;;;34.28;18.80;;;11.10;97.60;;;;;;5070794;28;20066;-68
2021/11/12 00:59:16;;;;;;;41.53;20.52;;;11.10;97.60;;;;;;5070904;28;20258;-68
2021/11/12 01:01:44;;;;;;;38.90;20.02;;;11.10;97.50;;;;;;5070657;28;20039;-68
2021/11/12 01:04:13;;;;;;;46.25;20.35;;;11.10;97.60;;;;;;5071167;28;20028;-68
2021/11/12 01:06:39;;;;;;;46.60;21.45;;;11.20;97.50;;;;;;5070800;28;20036;-68
2021/11/12 01:09:07;;;;;;;42.40;19.50;;;11.30;97.30;;;;;;5070501;28;20063;-68
2021/11/12 01:11:33;;;;;;;45.28;21.42;;;11.30;97.20;;;;;;5070916;28;20040;-69
2021/11/12 01:13:59;;;;;;;43.28;20.92;;;11.30;97.20;;;;;;5070313;28;20169;-67
2021/11/12 01:16:26;;;;;;;43.60;21.08;;;11.30;97.20;;;;;;5070547;28;20086;-67
2021/11/12 01:18:52;;;;;;;48.90;21.63;;;11.30;97.30;;;;;;5071045;28;20102;-67
2021/11/12 01:21:19;;;;;;;40.80;20.85;;;11.30;97.30;;;;;;5069488;28;20036;-68
2021/11/12 01:23:49;;;;;;;41.13;19.48;;;11.20;97.50;;;;;;5070404;28;20116;-68
2021/11/12 01:26:16;;;;;;;43.40;20.45;;;11.20;97.50;;;;;;5070622;28;20449;-68
2021/11/12 01:28:42;;;;;;;50.05;21.45;;;11.10;97.60;;;;;;5070400;28;20101;-67
2021/11/12 01:31:09;;;;;;;41.42;21.25;;;11.20;97.40;;;;;;5070879;28;20025;-67
2021/11/12 01:33:35;;;;;;;44.80;21.00;;;11.30;97.30;;;;;;5070263;28;20032;-69
2021/11/12 01:36:13;;;;;;;46.15;21.30;;;11.20;97.20;;;;;;5070251;28;20029;-68
2021/11/12 01:38:39;;;;;;;46.13;20.38;;;11.30;97.30;;;;;;5070557;28;20107;-68
2021/11/12 01:41:05;;;;;;;39.15;20.55;;;11.30;97.20;;;;;;5070248;28;20534;-68
2021/11/12 01:43:38;;;;;;;42.30;20.75;;;11.20;97.30;;;;;;5070181;28;20347;-67
2021/11/12 01:48:59;;;;;;;42.92;21.55;;;11.10;97.40;;;;;;5070393;28;20028;-68
2021/11/12 02:01:32;;;;;;;41.55;20.58;;;11.10;97.50;;;;;;5070146;28;20056;-67
2021/11/12 02:03:57;;;;;;;42.58;19.60;;;11.20;97.40;;;;;;5070326;28;20012;-68
2021/11/12 02:06:24;;;;;;;45.75;21.23;;;11.10;97.60;;;;;;5070108;28;20047;-68
2021/11/12 02:08:51;;;;;;;47.03;22.38;;;11.00;97.80;;;;;;5070226;28;20087;-68
2021/11/12 02:11:18;;;;;;;49.90;20.50;;;10.90;97.70;;;;;;5069973;28;20032;-67
2021/11/12 02:13:45;;;;;;;39.63;19.85;;;10.90;97.70;;;;;;5070391;28;20044;-67
2021/11/12 02:16:23;;;;;;;37.90;19.02;;;11.00;97.70;;;;;;5074037;28;20497;-67
2021/11/12 02:18:49;;;;;;;40.65;20.13;;;10.90;97.80;;;;;;5073624;28;20041;-68
2021/11/12 02:26:22;;;;;;;42.70;21.08;;;10.90;98.00;;;;;;5073649;28;20340;-68
2021/11/12 02:28:53;;;;;;;45.22;21.38;;;10.90;97.90;;;;;;5073338;28;20039;-68
2021/11/12 02:31:19;;;;;;;49.88;20.52;;;10.90;97.80;;;;;;5073833;28;20032;-68
2021/11/12 02:33:45;;;;;;;45.03;21.27;;;11.00;97.70;;;;;;5073501;28;20051;-68
2021/11/12 02:36:14;;;;;;;44.78;22.05;;;10.90;97.60;;;;;;5061726;28;20044;-67
2021/11/12 02:38:46;;;;;;;46.63;21.45;;;10.90;97.60;;;;;;5053313;28;20043;-67
2021/11/12 02:41:12;;;;;;;47.55;22.13;;;10.90;97.60;;;;;;5053208;28;20080;-68
2021/11/12 02:43:40;;;;;;;53.03;22.60;;;10.90;97.70;;;;;;5053402;28;20069;-68
2021/11/12 02:46:11;;;;;;;47.33;21.35;;;10.80;97.80;;;;;;5053466;28;20052;-68
2021/11/12 02:48:39;;;;;;;50.10;22.45;;;10.90;97.70;;;;;;5053073;28;20029;-67
2021/11/12 02:51:08;;;;;;;53.42;24.05;;;10.90;97.90;;;;;;5053167;28;20116;-68
2021/11/12 02:53:35;;;;;;;55.88;25.40;;;10.80;97.70;;;;;;5052974;28;20079;-68
2021/11/12 02:56:07;;;;;;;60.38;24.70;;;10.70;97.90;;;;;;5051734;28;20041;-67
2021/11/12 02:58:33;;;;;;;54.03;25.10;;;10.80;97.90;;;;;;5052875;28;20431;-68
2021/11/12 03:00:59;;;;;;;52.85;23.13;;;10.80;97.80;;;;;;5052167;28;20029;-68
2021/11/12 03:03:25;;;;;;;51.40;23.60;;;10.80;97.80;;;;;;5052679;28;20486;-68
2021/11/12 03:05:51;;;;;;;48.35;24.05;;;10.80;97.70;;;;;;5052604;28;20504;-68
2021/11/12 03:08:17;;;;;;;51.40;23.02;;;10.80;97.70;;;;;;5052674;28;20171;-68
2021/11/12 03:10:44;;;;;;;52.97;24.15;;;10.90;97.60;;;;;;5052511;28;20040;-68
2021/11/12 03:13:10;;;;;;;47.92;23.80;;;10.90;97.60;;;;;;5052807;28;20584;-68
2021/11/12 03:15:36;;;;;;;47.60;21.73;;;10.80;97.50;;;;;;5052507;28;20108;-69
2021/11/12 03:18:02;;;;;;;53.45;22.10;;;10.80;97.50;;;;;;5052640;28;20034;-68
2021/11/12 03:20:30;;;;;;;47.65;22.80;;;10.90;97.50;;;;;;5052649;28;20112;-68
2021/11/12 03:23:04;;;;;;;47.70;22.00;;;10.90;97.40;;;;;;5052370;28;20029;-68
2021/11/12 04:03:41;;;;;;;50.47;22.70;;;10.80;97.60;;;;;;5051476;28;20040;-68
2021/11/12 04:22:19;;;;;;;44.40;21.27;;;10.80;97.60;;;;;;5051944;28;20388;-67
2021/11/12 05:44:19;;;;;;;48.10;20.38;;;10.40;97.50;;;;;;5050477;28;20051;-68
2021/11/12 05:57:14;;;;;;;40.85;21.65;;;10.40;97.40;;;;;;5053958;28;20068;-68
2021/11/12 05:59:40;;;;;;;45.28;20.17;;;10.40;97.60;;;;;;5054189;28;20026;-66
2021/11/12 06:02:05;;;;;;;39.55;20.65;;;10.40;97.70;;;;;;5054080;28;20106;-67
2021/11/12 06:04:32;;;;;;;41.05;19.95;;;10.40;97.80;;;;;;5053786;28;20021;-68
2021/11/12 06:06:58;;;;;;;51.50;21.83;;;10.50;97.70;;;;;;5054245;28;20540;-68
2021/11/12 06:09:23;;;;;;;44.17;21.83;;;10.30;97.70;;;;;;5053675;28;20045;-68
2021/11/12 06:11:53;;;;;;;44.28;20.52;;;10.40;97.80;;;;;;5053559;28;20045;-68
2021/11/12 06:14:18;;;;;;;41.67;19.58;;;10.40;97.80;;;;;;5053562;28;20068;-67
2021/11/12 06:16:45;;;;;;;44.88;21.17;;;10.50;97.60;;;;;;5053574;28;20033;-68
2021/11/12 06:19:10;;;;;;;45.60;21.15;;;10.50;97.60;;;;;;5054100;28;20021;-68
2021/11/12 06:21:36;;;;;;;45.10;20.98;;;10.40;97.60;;;;;;5053773;28;20029;-67
2021/11/12 06:24:02;;;;;;;40.95;20.45;;;10.30;97.70;;;;;;5053605;28;20493;-68
2021/11/12 06:26:28;;;;;;;38.05;20.15;;;10.20;97.70;;;;;;5053954;28;20029;-67
2021/11/12 06:28:55;;;;;;;40.67;20.05;;;10.10;97.90;;;;;;5053548;28;20393;-67
2021/11/12 06:31:22;;;;;;;40.72;19.90;;;10.10;98.00;;;;;;5053397;28;20128;-67
2021/11/12 06:33:49;;;;;;;44.95;22.15;;;10.00;98.00;;;;;;5053834;28;20430;-69
2021/11/12 06:36:16;;;;;;;48.07;22.03;;;10.00;98.00;;;;;;5053428;28;20421;-68
2021/11/12 06:38:42;;;;;;;46.60;21.17;;;10.00;98.00;;;;;;5053362;28;20277;-68
2021/11/12 06:41:11;;;;;;;44.55;21.08;;;10.00;98.10;;;;;;5052982;28;20312;-68
2021/11/12 06:43:52;;;;;;;41.35;20.15;;;10.00;98.00;;;;;;5058454;28;20013;-68
2021/11/12 06:52:01;;;;;;;41.70;21.50;;;10.00;98.10;;;;;;5071836;28;20111;-68
2021/11/12 06:54:28;;;;;;;43.55;21.65;;;10.10;97.90;;;;;;5072701;28;20086;-68
2021/11/12 06:56:54;;;;;;;49.42;21.13;;;10.10;97.80;;;;;;5072905;28;20052;-68
2021/11/12 06:59:20;;;;;;;40.38;20.17;;;10.00;97.70;;;;;;5072684;28;20028;-67
2021/11/12 07:01:48;;;;;;;43.47;20.55;;;10.10;97.80;;;;;;5072882;28;20266;-67
2021/11/12 07:04:15;;;;;;;46.63;21.35;;;10.10;97.70;;;;;;5073214;28;20042;-68
2021/11/12 07:06:41;;;;;;;39.80;19.77;;;10.00;97.80;;;;;;5072896;28;20052;-67
2021/11/12 07:09:07;;;;;;;50.20;23.42;;;9.90;98.40;;;;;;5072700;28;20024;-69
2021/11/12 07:11:34;;;;;;;44.67;22.13;;;9.80;98.50;;;;;;5072742;28;20035;-73
2021/11/12 07:14:00;;;;;;;49.10;22.40;;;9.80;98.60;;;;;;5072431;28;20044;-72
2021/11/12 07:16:26;;;;;;;48.10;22.27;;;9.70;98.70;;;;;;5072852;28;20778;-71
2021/11/12 07:18:54;;;;;;;50.90;21.45;;;9.80;98.80;;;;;;5071888;28;20443;-71
2021/11/12 07:21:23;;;;;;;41.80;22.50;;;9.70;98.70;;;;;;5072481;28;20524;-71
2021/11/12 07:23:49;;;;;;;44.63;21.25;;;9.70;98.80;;;;;;5072438;28;20033;-72
2021/11/12 07:26:16;;;;;;;44.35;20.23;;;9.70;98.70;;;;;;5072371;28;20028;-71
2021/11/12 07:28:42;;;;;;;47.60;20.50;;;9.70;98.80;;;;;;5072826;28;20029;-70
2021/11/12 07:31:08;;;;;;;45.40;21.33;;;9.70;98.80;;;;;;5072852;28;20028;-72
2021/11/12 07:33:34;;;;;;;43.72;19.63;;;9.60;98.70;;;;;;5072488;28;20036;-70
2021/11/12 07:39:17;;;;;;;39.30;19.13;;;9.60;99.10;;;;;;5072399;28;20024;-71
2021/11/12 07:48:58;;;;;;;39.30;18.55;;;9.70;99.30;;;;;;5072604;28;20100;-72
2021/11/12 07:51:25;;;;;;;41.40;18.45;;;9.80;99.20;;;;;;5071766;28;20044;-72
2021/11/12 07:53:50;;;;;;;39.33;17.77;;;9.70;99.00;;;;;;5071823;28;20043;-73
2021/11/12 07:56:16;;;;;;;39.47;20.15;;;9.90;99.10;;;;;;5071782;28;20032;-70
2021/11/12 07:58:42;;;;;;;34.15;17.27;;;9.90;98.90;;;;;;5070691;28;20442;-71
2021/11/12 08:01:08;;;;;;;39.90;18.85;;;9.90;98.90;;;;;;5070666;28;20067;-72
2021/11/12 08:03:34;;;;;;;36.10;17.52;;;10.00;98.30;;;;;;5071889;28;20097;-71
2021/11/12 08:06:01;;;;;;;33.97;16.45;;;10.10;98.50;;;;;;5071473;28;20103;-72
2021/11/12 08:08:30;;;;;;;28.55;14.68;;;10.10;98.10;;;;;;5070518;28;20028;-73
2021/11/12 08:13:33;;;;;;;28.23;14.02;;;10.20;98.00;;;;;;5071151;28;20074;-71
2021/11/12 08:18:50;;;;;;;30.20;15.45;;;10.20;97.90;;;;;;5071328;28;20039;-72
2021/11/12 08:21:23;;;;;;;28.77;15.25;;;10.30;97.90;;;;;;5071283;28;20071;-73
2021/11/12 08:39:04;;;;;;;20.48;10.85;;;10.50;97.70;;;;;;5070856;28;20124;-73
2021/11/12 08:41:37;;;;;;;21.15;10.95;;;10.40;97.70;;;;;;5070704;28;20028;-71
2021/11/12 08:44:16;;;;;;;20.90;11.20;;;10.50;97.70;;;;;;5071100;28;20025;-71
2021/11/12 08:49:29;;;;;;;18.63;9.45;;;10.60;97.70;;;;;;5071230;28;20238;-70
2021/11/12 08:52:00;;;;;;;16.58;9.07;;;10.60;97.60;;;;;;5071188;28;20044;-70
2021/11/12 08:54:29;;;;;;;14.32;8.00;;;10.70;97.50;;;;;;5070660;28;20032;-70
2021/11/12 08:56:56;;;;;;;12.80;7.00;;;10.60;97.30;;;;;;5069639;28;20375;-70
2021/11/12 08:59:22;;;;;;;14.00;7.68;;;10.60;97.50;;;;;;5070638;28;20024;-70
2021/11/12 09:01:48;;;;;;;15.57;8.73;;;10.60;97.60;;;;;;5070441;28;20037;-70
2021/11/12 09:04:15;;;;;;;13.27;7.20;;;10.60;97.60;;;;;;5071047;28;20040;-72
2021/11/12 09:06:40;;;;;;;9.65;5.95;;;10.60;97.50;;;;;;5070672;28;20025;-70
2021/11/12 09:09:06;;;;;;;7.97;4.47;;;10.60;97.50;;;;;;5070708;28;20550;-70
2021/11/12 09:11:32;;;;;;;10.10;5.35;;;10.50;97.60;;;;;;5070901;28;20208;-71
2021/11/12 09:14:02;;;;;;;7.55;4.55;;;10.60;97.60;;;;;;5070463;28;20051;-70
2021/11/12 09:16:35;;;;;;;7.07;4.20;;;10.60;97.50;;;;;;5070544;28;20491;-70
2021/11/12 09:19:03;;;;;;;4.93;3.22;;;10.60;97.50;;;;;;5070784;28;20012;-70
2021/11/12 09:21:29;;;;;;;;;;;10.50;97.60;;;;;;5070750;28;20123;-72
2021/11/12 09:23:56;;;;;;;6.20;3.50;;;10.50;97.60;;;;;;5071684;28;19991;-71
2021/11/12 09:26:23;;;;;;;5.30;3.20;;;10.60;97.70;;;;;;5073546;28;20039;-71
2021/11/12 09:28:49;;;;;;;3.75;2.17;;;10.60;97.70;;;;;;5074530;28;20417;-69
2021/11/12 09:31:16;;;;;;;2.58;1.75;;;10.70;97.60;;;;;;5074806;28;20032;-71
2021/11/12 09:33:41;;;;;;;2.92;1.70;;;10.50;97.50;;;;;;5074371;28;20417;-71
2021/11/12 09:36:08;;;;;;;2.53;1.65;;;10.60;97.60;;;;;;5074109;28;20116;-70
2021/11/12 09:38:39;;;;;;;2.80;1.75;;;10.60;97.40;;;;;;5073251;28;20036;-70
2021/11/12 09:41:06;;;;;;;4.80;2.60;;;10.60;97.30;;;;;;5074090;28;20025;-70
2021/11/12 09:43:32;;;;;;;7.07;2.10;;;10.60;97.30;;;;;;5074208;28;20093;-70
2021/11/12 09:45:59;;;;;;;2.28;1.60;;;10.60;97.40;;;;;;5074783;28;20260;-70
2021/11/12 09:48:24;;;;;;;2.58;1.80;;;10.50;97.20;;;;;;5073967;28;20040;-70
2021/11/12 09:50:51;;;;;;;9.23;5.15;;;10.60;97.20;;;;;;5073999;28;20087;-70
2021/11/12 09:53:17;;;;;;;1.90;1.35;;;10.60;97.10;;;;;;5073903;28;20024;-71
2021/11/12 09:55:44;;;;;;;3.92;2.30;;;10.60;97.20;;;;;;5073734;28;20025;-72
2021/11/12 09:58:10;;;;;;;2.30;1.52;;;10.70;97.10;;;;;;5074334;28;20031;-70
2021/11/12 10:00:38;;;;;;;3.75;2.13;;;10.80;97.10;;;;;;5073918;28;20159;-71
2021/11/12 10:03:07;;;;;;;4.65;1.83;;;10.80;97.00;;;;;;5073796;28;20036;-71
2021/11/12 10:05:44;;;;;;;2.00;1.70;;;10.90;96.90;;;;;;5073857;28;20029;-71
2021/11/12 10:08:31;;;;;;;3.42;2.03;;;11.00;96.80;;;;;;5073910;28;20604;-71
2021/11/12 10:11:18;;;;;;;2.33;1.80;;;11.10;96.70;;;;;;5073877;28;20051;-71
2021/11/12 10:13:46;;;;;;;3.65;2.00;;;11.10;96.60;;;;;;5072349;28;20033;-72
2021/11/12 10:19:05;;;;;;;5.03;2.78;;;11.00;96.00;;;;;;5073853;28;20029;-71
2021/11/12 10:21:35;;;;;;;2.60;1.75;;;11.00;95.80;;;;;;5073453;28;20021;-70
2021/11/12 10:24:09;;;;;;;3.40;2.20;;;11.00;96.00;;;;;;5073407;28;20029;-71
2021/11/12 10:26:37;;;;;;;2.55;1.75;;;11.10;96.00;;;;;;5073303;28;20048;-72
2021/11/12 10:29:06;;;;;;;1.98;1.40;;;11.20;95.80;;;;;;5073486;28;20090;-70
2021/11/12 10:31:44;;;;;;;2.83;1.80;;;11.30;95.80;;;;;;5073323;28;20362;-72
2021/11/12 10:34:16;;;;;;;2.38;2.17;;;11.40;95.60;;;;;;5073184;28;20418;-72
2021/11/12 10:36:58;;;;;;;3.90;1.80;;;11.50;95.40;;;;;;5072981;28;20036;-73
2021/11/12 10:39:32;;;;;;;3.53;1.75;;;11.60;95.30;;;;;;5072859;28;20032;-72
2021/11/12 10:42:10;;;;;;;2.10;1.67;;;11.70;95.10;;;;;;5072717;28;20020;-71
2021/11/12 10:44:42;;;;;;;3.65;2.45;;;12.40;95.40;;;;;;5073047;28;20024;-71
2021/11/12 10:47:08;;;;;;;2.47;1.40;;;13.10;93.90;;;;;;5072971;28;20037;-72
2021/11/12 10:49:39;;;;;;;2.72;1.70;;;13.40;93.40;;;;;;5072859;28;20028;-73
2021/11/12 10:52:25;;;;;;;1.63;1.30;;;14.10;92.40;;;;;;5073637;28;20085;-73
2021/11/12 10:55:01;;;;;;;2.17;1.40;;;14.90;90.80;;;;;;5073300;28;20040;-74
2021/11/12 10:57:29;;;;;;;2.85;1.65;;;15.50;89.60;;;;;;5072578;28;20033;-73
2021/11/12 11:00:05;;;;;;;2.28;1.58;;;16.30;88.70;;;;;;5073076;28;20036;-71
2021/11/12 11:02:35;;;;;;;3.85;2.60;;;16.90;85.50;;;;;;5072674;28;20497;-72
2021/11/12 11:05:28;;;;;;;4.95;2.20;;;17.20;82.60;;;;;;5072896;28;20035;-72
2021/11/12 11:08:04;;;;;;;4.63;2.70;;;17.50;83.10;;;;;;5054652;28;20039;-71
2021/11/12 11:10:31;;;;;;;5.07;2.45;;;18.20;82.60;;;;;;5072359;28;20103;-74
2021/11/12 11:13:17;;;;;;;6.13;3.00;;;18.00;78.10;;;;;;5073235;28;20060;-71
2021/11/12 11:16:06;;;;;;;3.75;2.75;;;18.00;79.30;;;;;;5072642;28;20052;-72
2021/11/12 11:18:42;;;;;;;3.20;2.60;;;17.60;78.60;;;;;;5072341;28;20028;-72
2021/11/12 11:23:48;;;;;;;4.88;3.58;;;17.40;78.80;;;;;;5072209;28;20357;-71
2021/11/12 11:26:18;;;;;;;5.22;3.13;;;17.40;79.30;;;;;;5071148;28;20374;-72
2021/11/12 11:28:44;;;;;;;4.45;3.03;;;17.40;78.00;;;;;;5072288;28;20111;-71
2021/11/12 11:31:12;;;;;;;5.13;3.00;;;17.60;78.30;;;;;;5072458;28;20513;-72
2021/11/12 11:33:41;;;;;;;10.95;4.13;;;17.60;77.60;;;;;;5072211;28;20036;-71
2021/11/12 11:36:08;;;;;;;5.53;3.83;;;17.50;79.20;;;;;;5071905;28;20042;-70
2021/11/12 11:38:36;;;;;;;7.53;4.15;;;17.00;78.70;;;;;;5071282;28;20091;-69
2021/11/12 11:41:04;;;;;;;7.57;4.47;;;16.80;78.90;;;;;;5071932;28;20021;-69
2021/11/12 11:43:31;;;;;;;8.20;3.97;;;16.40;79.40;;;;;;5071689;28;20031;-69
2021/11/12 11:46:03;;;;;;;7.60;4.32;;;16.10;79.80;;;;;;5071716;28;20387;-69
2021/11/12 11:48:40;;;;;;;5.75;4.18;;;16.00;80.40;;;;;;5071678;28;20086;-70
2021/11/12 11:51:07;;;;;;;8.32;4.43;;;16.00;80.40;;;;;;5071823;28;20040;-69
2021/11/12 11:53:39;;;;;;;38.88;22.15;;;16.00;80.80;;;;;;5071977;28;20039;-69
2021/11/12 11:56:22;;;;;;;8.27;5.85;;;15.80;80.40;;;;;;5071459;28;20117;-71
2021/11/12 11:58:51;;;;;;;10.68;6.38;;;15.70;80.20;;;;;;5072242;28;20064;-70
2021/11/12 12:01:20;;;;;;;10.18;5.80;;;15.30;79.70;;;;;;5072380;28;20021;-70
2021/11/12 12:04:10;;;;;;;10.55;5.68;;;15.10;80.50;;;;;;5071588;28;20479;-73
2021/11/12 12:06:42;;;;;;;11.48;6.90;;;15.00;81.00;;;;;;5071598;28;20412;-71
2021/11/12 12:09:14;;;;;;;15.05;6.95;;;15.00;81.30;;;;;;5071571;28;20124;-71
2021/11/12 12:11:52;;;;;;;13.38;7.63;;;14.80;81.50;;;;;;5071677;28;20073;-71
2021/11/12 12:14:24;;;;;;;15.05;7.80;;;14.70;81.50;;;;;;5071415;28;20418;-70
2021/11/12 12:17:10;;;;;;;13.52;7.45;;;14.60;81.60;;;;;;5071486;28;20046;-70
2021/11/12 12:19:43;;;;;;;12.18;7.70;;;14.40;82.00;;;;;;5071287;28;20388;-71
2021/11/12 12:31:43;;;;;;;10.13;7.00;;;14.50;82.90;;;;;;5071339;28;20036;-69
2021/11/12 13:25:34;;;;;;;21.63;12.40;;;13.60;85.50;;;;;;5070860;28;20036;-70
2021/11/12 13:28:08;;;;;;;20.98;12.13;;;13.40;85.10;;;;;;5071401;28;20507;-71
2021/11/12 13:30:34;;;;;;;21.13;12.50;;;13.40;85.00;;;;;;5070838;28;20040;-71
2021/11/12 13:33:01;;;;;;;23.65;12.95;;;13.40;85.20;;;;;;5070816;28;20028;-71
2021/11/12 13:35:31;;;;;;;20.58;12.30;;;13.40;85.40;;;;;;5070640;28;20068;-71
2021/11/12 13:37:57;;;;;;;21.45;12.38;;;13.30;85.30;;;;;;5069747;28;20036;-73
2021/11/12 13:40:23;;;;;;;24.92;12.95;;;13.20;85.40;;;;;;5069336;28;20035;-72
2021/11/12 13:42:50;;;;;;;23.02;13.45;;;13.00;85.80;;;;;;5071129;28;20081;-72
2021/11/12 13:45:16;;;;;;;25.38;13.50;;;13.00;85.80;;;;;;5070724;28;20148;-72
2021/11/12 13:47:42;;;;;;;20.50;12.25;;;13.10;86.00;;;;;;5070636;28;20561;-72
2021/11/12 13:50:08;;;;;;;21.08;12.43;;;13.00;85.70;;;;;;5070586;28;20233;-71
2021/11/12 13:52:34;;;;;;;22.05;13.07;;;13.00;85.70;;;;;;5070505;28;20040;-71
2021/11/12 13:55:15;;;;;;;25.73;12.90;;;12.90;86.40;;;;;;5070610;28;20021;-72
2021/11/12 13:57:59;;;;;;;21.13;11.93;;;12.80;85.70;;;;;;5070508;28;20480;-73
2021/11/12 14:00:26;;;;;;;21.58;12.65;;;12.80;86.20;;;;;;5070541;28;20048;-73
2021/11/12 14:03:11;;;;;;;22.57;13.17;;;12.80;86.30;;;;;;5070533;28;20204;-70
2021/11/12 14:05:52;;;;;;;22.80;12.35;;;12.70;86.50;;;;;;5069386;28;20028;-73
2021/11/12 14:08:17;;;;;;;27.08;13.38;;;12.60;86.80;;;;;;5070149;28;20109;-73
2021/11/12 14:10:48;;;;;;;26.45;12.63;;;12.50;87.10;;;;;;5072716;28;20328;-73
2021/11/12 14:13:17;;;;;;;22.67;12.70;;;12.50;87.30;;;;;;5074373;28;20097;-75
2021/11/12 14:16:11;;;;;;;22.92;13.07;;;12.50;87.40;;;;;;5072970;28;20459;-73
2021/11/12 14:21:13;;;;;;;28.77;15.30;;;12.40;87.70;;;;;;5073805;28;20032;-72
2021/11/12 14:26:50;;;;;;;23.98;12.18;;;12.30;88.10;;;;;;5070101;28;20119;-70
2021/11/12 14:41:19;;;;;;;21.67;12.27;;;12.00;88.50;;;;;;5053264;28;20140;-71
2021/11/12 14:46:41;;;;;;;26.23;13.65;;;12.00;88.90;;;;;;5053565;28;20036;-68
2021/11/12 14:52:08;;;;;;;29.67;14.63;;;11.80;89.40;;;;;;5053137;28;20035;-69
2021/11/12 14:54:46;;;;;;;23.40;13.60;;;11.70;89.80;;;;;;5052677;28;20037;-69
2021/11/12 14:57:33;;;;;;;37.55;17.80;;;11.80;89.80;;;;;;5053030;28;20503;-68
2021/11/12 15:00:08;;;;;;;24.98;14.02;;;11.70;90.00;;;;;;5053163;28;20459;-68
2021/11/12 15:02:35;;;;;;;25.30;13.15;;;11.60;90.10;;;;;;5053181;28;20113;-67
2021/11/12 15:05:01;;;;;;;25.63;14.18;;;11.50;90.10;;;;;;5052603;28;20409;-67
2021/11/12 15:07:32;;;;;;;26.90;13.93;;;11.40;90.40;;;;;;5052781;28;20033;-67
2021/11/12 15:09:58;;;;;;;23.73;13.40;;;11.40;90.40;;;;;;5052851;28;20024;-67
2021/11/12 15:12:25;;;;;;;26.95;14.65;;;11.40;90.30;;;;;;5052452;28;20124;-67
2021/11/12 15:14:54;;;;;;;24.13;13.73;;;11.40;90.30;;;;;;5052665;28;20021;-68
2021/11/12 15:17:21;;;;;;;29.67;13.32;;;11.30;90.40;;;;;;5052794;28;20028;-68
2021/11/12 15:19:47;;;;;;;24.15;13.68;;;11.30;90.60;;;;;;5051522;28;20032;-67
2021/11/12 15:25:10;;;;;;;22.83;12.80;;;11.10;90.70;;;;;;5052458;28;20043;-68
2021/11/12 15:30:15;;;;;;;25.10;12.50;;;11.10;91.00;;;;;;5052360;28;19909;-68
2021/11/12 15:32:46;;;;;;;24.55;13.65;;;11.10;90.90;;;;;;5052207;28;20032;-68
2021/11/12 15:35:15;;;;;;;23.30;13.77;;;10.90;91.10;;;;;;5052175;28;20040;-68
2021/11/12 15:37:45;;;;;;;22.42;12.75;;;11.00;91.10;;;;;;5051934;28;20033;-67
2021/11/12 15:42:59;;;;;;;27.30;13.45;;;11.00;91.00;;;;;;5051959;28;20036;-68
2021/11/12 15:48:14;;;;;;;22.33;12.50;;;10.90;91.00;;;;;;5051941;28;20037;-68
2021/11/12 15:55:55;;;;;;;32.67;16.33;;;10.60;91.30;;;;;;5051874;28;20029;-67
2021/11/12 16:11:32;;;;;;;27.65;13.95;;;10.30;91.70;;;;;;5051555;28;20044;-68
2021/11/12 16:14:06;;;;;;;32.38;14.90;;;10.40;91.70;;;;;;5051329;28;20037;-68
2021/11/12 16:19:36;;;;;;;29.30;15.75;;;10.30;91.90;;;;;;5050431;28;20439;-66
2021/11/12 16:26:59;;;;;;;29.20;14.98;;;10.20;92.20;;;;;;5051366;28;20125;-68
2021/11/12 16:32:08;;;;;;;29.33;14.25;;;10.20;92.00;;;;;;5050820;28;20108;-68
2021/11/12 16:34:43;;;;;;;27.73;14.82;;;10.20;92.10;;;;;;5050871;28;20033;-68
2021/11/12 16:37:11;;;;;;;25.67;14.60;;;10.10;92.20;;;;;;5051096;28;20421;-68
2021/11/12 16:39:43;;;;;;;30.70;14.88;;;10.20;92.20;;;;;;5050892;28;20033;-68
2021/11/12 16:42:27;;;;;;;34.13;17.70;;;10.10;92.40;;;;;;5049936;28;20094;-68
2021/11/12 17:05:33;;;;;;;27.02;14.35;;;9.70;93.00;;;;;;5050881;28;20055;-67
2021/11/12 17:10:40;;;;;;;27.02;14.57;;;9.60;93.20;;;;;;5050726;28;20025;-67
2021/11/12 17:18:50;;;;;;;32.17;15.98;;;9.50;93.40;;;;;;5050717;28;20084;-68
2021/11/12 17:45:53;;;;;;;34.42;16.92;;;9.10;93.80;;;;;;5057352;28;20047;-70
2021/11/12 17:48:41;;;;;;;31.45;16.50;;;9.00;93.60;;;;;;5075526;28;20036;-69
2021/11/12 17:51:20;;;;;;;33.28;18.13;;;9.00;93.60;;;;;;5075608;28;20366;-68
2021/11/12 18:01:33;;;;;;;32.50;16.50;;;9.00;93.60;;;;;;5075398;28;20424;-68
2021/11/12 18:02:22;;;;;;;30.63;17.05;;;8.90;93.50;;;;;;5075420;28;20086;-68
2021/11/12 18:15:49;;;;;;;33.72;18.05;;;8.70;93.70;;;;;;5074675;28;20097;-69
2021/11/12 18:24:39;;;;;;;33.22;16.58;;;8.70;93.60;;;;;;5074848;28;20379;-69
2021/11/12 21:44:55;;;;;;;44.95;20.90;;;7.20;95.50;;;;;;5058645;28;20114;-68
2021/11/12 21:47:21;;;;;;;42.20;22.45;;;7.20;95.40;;;;;;5058546;28;20043;-68
2021/11/12 21:49:46;;;;;;;42.40;22.25;;;7.30;95.30;;;;;;5058327;28;20450;-69
2021/11/12 21:52:12;;;;;;;42.70;22.05;;;7.30;95.30;;;;;;5058748;28;20129;-67
2021/11/12 21:54:38;;;;;;;37.15;20.30;;;7.30;95.30;;;;;;5058128;28;20123;-68
2021/11/12 21:57:04;;;;;;;39.80;19.77;;;7.30;95.20;;;;;;5057841;28;20033;-69
2021/11/12 21:59:30;;;;;;;40.53;19.48;;;7.30;95.20;;;;;;5058406;28;20021;-70
2021/11/12 22:01:56;;;;;;;41.17;20.00;;;7.40;95.20;;;;;;5058405;28;20095;-68
2021/11/12 22:04:23;;;;;;;41.38;20.20;;;7.30;95.10;;;;;;5058287;28;20021;-68
2021/11/12 22:06:49;;;;;;;39.65;20.42;;;7.30;95.10;;;;;;5058761;28;20462;-70
2021/11/12 22:09:15;;;;;;;39.50;20.75;;;7.20;95.20;;;;;;5057098;28;20064;-67
2021/11/12 22:11:41;;;;;;;36.65;18.73;;;7.20;95.60;;;;;;5058376;28;20052;-68
2021/11/12 22:14:06;;;;;;;34.80;18.77;;;7.40;95.30;;;;;;5057657;28;20051;-69
2021/11/12 22:16:34;;;;;;;34.55;18.80;;;7.30;95.20;;;;;;5057901;28;20060;-68
2021/11/12 22:19:00;;;;;;;36.90;18.50;;;7.30;95.20;;;;;;5058624;28;20478;-68
2021/11/12 22:21:26;;;;;;;34.08;18.35;;;7.30;95.10;;;;;;5057031;28;20288;-69
2021/11/12 22:23:52;;;;;;;34.25;17.80;;;7.40;95.10;;;;;;5058117;28;20033;-69
2021/11/12 22:26:20;;;;;;;44.75;19.80;;;7.40;95.10;;;;;;5057063;28;20029;-69
2021/11/12 22:28:50;;;;;;;40.65;19.13;;;7.30;95.00;;;;;;5057972;28;20048;-68
2021/11/12 22:31:16;;;;;;;33.78;17.90;;;7.30;95.10;;;;;;5055541;28;20403;-68
2021/11/12 22:33:42;;;;;;;35.03;18.17;;;7.20;95.10;;;;;;5053875;28;20107;-68
2021/11/12 22:36:08;;;;;;;39.33;19.75;;;7.30;95.10;;;;;;5054631;28;20044;-70
2021/11/12 22:38:35;;;;;;;41.22;19.35;;;7.20;95.20;;;;;;5054651;28;20104;-67
2021/11/12 22:41:00;;;;;;;38.50;19.55;;;7.20;95.50;;;;;;5054763;28;20044;-69
2021/11/12 22:43:26;;;;;;;38.90;20.45;;;7.10;95.60;;;;;;5053215;28;20025;-68
2021/11/12 22:45:53;;;;;;;39.80;18.95;;;7.20;95.60;;;;;;5053680;28;20016;-67
2021/11/12 22:48:19;;;;;;;35.92;18.55;;;7.20;95.60;;;;;;5053032;28;20059;-67
2021/11/12 22:50:46;;;;;;;36.53;18.08;;;7.20;95.60;;;;;;5053028;28;20033;-68
2021/11/12 22:53:12;;;;;;;39.45;18.30;;;7.20;95.50;;;;;;5053443;28;20454;-67
2021/11/12 22:55:38;;;;;;;40.63;19.95;;;7.20;95.60;;;;;;5053353;28;20025;-68
2021/11/12 22:58:03;;;;;;;39.15;19.02;;;7.20;95.60;;;;;;5053508;28;20025;-68
2021/11/12 23:00:32;;;;;;;34.72;18.40;;;7.10;95.90;;;;;;5052947;28;20047;-67
2021/11/12 23:02:59;;;;;;;38.03;18.13;;;7.10;95.70;;;;;;5052063;28;20029;-67
2021/11/12 23:05:24;;;;;;;39.78;18.55;;;7.20;95.70;;;;;;5052924;28;20089;-66
2021/11/12 23:07:51;;;;;;;37.75;18.73;;;7.20;95.60;;;;;;5052986;28;20028;-67
2021/11/12 23:10:17;;;;;;;41.17;19.45;;;7.20;95.70;;;;;;5053252;28;20108;-68